Terminal Aerodrome Forecast
Issued by NWS

Home | Current Version | Previous Version | Text Only | Print | Product List | Glossary On
Versions: 1 2 3 4 5 6 7 8 9 10 11 12 13 14 15 16 17 18 19 20 21
000
FTUS43 KMQT 250500
TAFSAW
TAF
KSAW 250527Z 2506/2606 18005KT P6SM SCT060
     FM251500 20008KT P6SM BKN050
     FM260000 18007KT P6SM BKN050 PROB30 2600/2606 -SHRA
      AMD LTD TO CLD VIS AND WIND TIL 251000=

USA.gov is the U.S. government's official web portal to all federal, state and local government web resources and services.